sensor_id;sensor_type;location;lat;lon;timestamp;pressure;altitude;pressure_sealevel;temperature;humidity
3250;BME280;1637;42.020;23.992;2023-02-13T00:00:04;94313.13;;;1.19;83.06
3250;BME280;1637;42.020;23.992;2023-02-13T00:02:32;94307.09;;;1.27;82.73
3250;BME280;1637;42.020;23.992;2023-02-13T00:04:59;94306.06;;;1.46;82.17
3250;BME280;1637;42.020;23.992;2023-02-13T00:07:26;94323.78;;;1.45;81.70
3250;BME280;1637;42.020;23.992;2023-02-13T00:09:53;94323.16;;;1.48;81.21
3250;BME280;1637;42.020;23.992;2023-02-13T00:12:21;94321.28;;;1.49;81.22
3250;BME280;1637;42.020;23.992;2023-02-13T00:14:48;94319.13;;;1.51;80.90
3250;BME280;1637;42.020;23.992;2023-02-13T00:17:15;94326.50;;;1.31;82.24
3250;BME280;1637;42.020;23.992;2023-02-13T00:19:42;94328.03;;;1.24;82.66
3250;BME280;1637;42.020;23.992;2023-02-13T00:22:09;94326.31;;;0.88;86.69
3250;BME280;1637;42.020;23.992;2023-02-13T00:24:36;94326.31;;;0.66;88.55
3250;BME280;1637;42.020;23.992;2023-02-13T00:27:03;94322.91;;;1.19;86.56
3250;BME280;1637;42.020;23.992;2023-02-13T00:29:31;94319.66;;;1.30;84.31
3250;BME280;1637;42.020;23.992;2023-02-13T00:31:58;94333.53;;;1.05;86.16
3250;BME280;1637;42.020;23.992;2023-02-13T00:34:25;94331.78;;;1.31;85.54
3250;BME280;1637;42.020;23.992;2023-02-13T00:36:53;94325.00;;;1.48;84.92
3250;BME280;1637;42.020;23.992;2023-02-13T00:39:20;94308.25;;;1.44;83.56
3250;BME280;1637;42.020;23.992;2023-02-13T00:41:46;94325.97;;;1.52;84.25
3250;BME280;1637;42.020;23.992;2023-02-13T00:44:13;94324.16;;;1.30;84.97
3250;BME280;1637;42.020;23.992;2023-02-13T00:46:41;94321.22;;;1.31;85.28
3250;BME280;1637;42.020;23.992;2023-02-13T00:49:09;94322.66;;;1.37;85.12
3250;BME280;1637;42.020;23.992;2023-02-13T00:51:35;94313.31;;;1.31;85.49
3250;BME280;1637;42.020;23.992;2023-02-13T00:54:02;94326.81;;;1.30;84.97
3250;BME280;1637;42.020;23.992;2023-02-13T00:56:29;94281.16;;;0.90;86.28
3250;BME280;1637;42.020;23.992;2023-02-13T00:58:56;94322.13;;;1.27;85.79
3250;BME280;1637;42.020;23.992;2023-02-13T01:01:23;94324.03;;;1.04;86.17
3250;BME280;1637;42.020;23.992;2023-02-13T01:03:51;94317.28;;;0.81;88.57
3250;BME280;1637;42.020;23.992;2023-02-13T01:06:18;94317.97;;;0.95;88.05
3250;BME280;1637;42.020;23.992;2023-02-13T01:08:45;94320.81;;;1.07;86.95
3250;BME280;1637;42.020;23.992;2023-02-13T01:11:12;94311.84;;;0.86;86.46
3250;BME280;1637;42.020;23.992;2023-02-13T01:13:39;94329.47;;;0.99;87.61
3250;BME280;1637;42.020;23.992;2023-02-13T01:16:06;94295.06;;;1.13;85.40
3250;BME280;1637;42.020;23.992;2023-02-13T01:18:33;94322.66;;;1.07;86.59
3250;BME280;1637;42.020;23.992;2023-02-13T01:21:03;94309.97;;;0.78;87.52
3250;BME280;1637;42.020;23.992;2023-02-13T01:23:31;94320.03;;;1.37;85.69
3250;BME280;1637;42.020;23.992;2023-02-13T01:25:58;94305.53;;;1.26;84.90
3250;BME280;1637;42.020;23.992;2023-02-13T01:28:25;94313.53;;;1.44;84.68
3250;BME280;1637;42.020;23.992;2023-02-13T01:30:53;94329.06;;;1.54;84.11
3250;BME280;1637;42.020;23.992;2023-02-13T01:33:20;94306.59;;;1.25;84.26
3250;BME280;1637;42.020;23.992;2023-02-13T01:35:47;94323.97;;;1.18;85.95
3250;BME280;1637;42.020;23.992;2023-02-13T01:38:15;94325.78;;;1.09;86.78
3250;BME280;1637;42.020;23.992;2023-02-13T01:40:46;94330.72;;;1.01;87.21
3250;BME280;1637;42.020;23.992;2023-02-13T01:43:13;94335.28;;;0.87;88.92
3250;BME280;1637;42.020;23.992;2023-02-13T01:45:41;94308.53;;;0.72;88.99
3250;BME280;1637;42.020;23.992;2023-02-13T01:48:12;94325.84;;;1.17;87.94
3250;BME280;1637;42.020;23.992;2023-02-13T01:50:44;94233.63;;;0.73;86.02
3250;BME280;1637;42.020;23.992;2023-02-13T01:53:18;94329.00;;;1.36;86.16
3250;BME280;1637;42.020;23.992;2023-02-13T01:55:49;94331.19;;;1.34;86.08
3250;BME280;1637;42.020;23.992;2023-02-13T01:58:20;94340.47;;;1.23;87.07
3250;BME280;1637;42.020;23.992;2023-02-13T02:00:48;94330.16;;;1.44;85.34
3250;BME280;1637;42.020;23.992;2023-02-13T02:03:18;94330.22;;;1.30;86.20
3250;BME280;1637;42.020;23.992;2023-02-13T02:05:50;94301.72;;;1.01;86.37
3250;BME280;1637;42.020;23.992;2023-02-13T02:08:19;94329.47;;;0.99;88.13
3250;BME280;1637;42.020;23.992;2023-02-13T02:10:46;94339.13;;;1.03;88.65
3250;BME280;1637;42.020;23.992;2023-02-13T02:13:15;94343.47;;;1.08;88.65
3250;BME280;1637;42.020;23.992;2023-02-13T02:15:43;94336.25;;;1.22;87.17
3250;BME280;1637;42.020;23.992;2023-02-13T02:18:13;94349.72;;;1.12;87.51
3250;BME280;1637;42.020;23.992;2023-02-13T02:24:16;94345.56;;;1.20;86.42
3250;BME280;1637;42.020;23.992;2023-02-13T02:27:13;94334.38;;;0.92;87.21
3250;BME280;1637;42.020;23.992;2023-02-13T02:30:00;94355.66;;;1.26;86.78
3250;BME280;1637;42.020;23.992;2023-02-13T02:32:44;94356.53;;;1.13;87.64
3250;BME280;1637;42.020;23.992;2023-02-13T02:35:22;94360.16;;;0.95;88.81
3250;BME280;1637;42.020;23.992;2023-02-13T02:38:05;94357.84;;;0.93;88.25
3250;BME280;1637;42.020;23.992;2023-02-13T02:40:39;94353.75;;;0.65;90.84
3250;BME280;1637;42.020;23.992;2023-02-13T02:43:18;94368.94;;;0.82;89.97
3250;BME280;1637;42.020;23.992;2023-02-13T02:45:53;94357.44;;;0.55;91.95
3250;BME280;1637;42.020;23.992;2023-02-13T02:48:28;94354.00;;;0.77;92.11
3250;BME280;1637;42.020;23.992;2023-02-13T02:51:34;94340.38;;;0.84;89.75
3250;BME280;1637;42.020;23.992;2023-02-13T02:54:21;94377.28;;;1.06;88.76
3250;BME280;1637;42.020;23.992;2023-02-13T02:57:11;94376.75;;;1.18;88.09
3250;BME280;1637;42.020;23.992;2023-02-13T02:59:41;94376.44;;;1.19;88.20
3250;BME280;1637;42.020;23.992;2023-02-13T03:02:27;94367.19;;;0.99;89.36
3250;BME280;1637;42.020;23.992;2023-02-13T03:05:18;94380.06;;;1.23;87.55
3250;BME280;1637;42.020;23.992;2023-02-13T03:08:12;94372.00;;;1.06;87.84
3250;BME280;1637;42.020;23.992;2023-02-13T03:10:39;94370.50;;;1.14;87.45
3250;BME280;1637;42.020;23.992;2023-02-13T03:13:38;94373.47;;;0.90;88.07
3250;BME280;1637;42.020;23.992;2023-02-13T03:16:11;94380.13;;;0.65;89.59
3250;BME280;1637;42.020;23.992;2023-02-13T03:18:57;94385.09;;;0.66;90.13
3250;BME280;1637;42.020;23.992;2023-02-13T03:21:47;94380.88;;;0.79;90.02
3250;BME280;1637;42.020;23.992;2023-02-13T03:24:40;94383.50;;;1.01;88.34
3250;BME280;1637;42.020;23.992;2023-02-13T03:27:15;94382.63;;;1.15;87.26
3250;BME280;1637;42.020;23.992;2023-02-13T03:30:17;94379.22;;;1.14;86.93
3250;BME280;1637;42.020;23.992;2023-02-13T03:32:53;94380.88;;;0.79;88.48
3250;BME280;1637;42.020;23.992;2023-02-13T03:35:29;94384.63;;;0.64;89.66
3250;BME280;1637;42.020;23.992;2023-02-13T03:38:22;94384.88;;;0.77;90.35
3250;BME280;1637;42.020;23.992;2023-02-13T03:40:53;94391.03;;;0.72;90.18
3250;BME280;1637;42.020;23.992;2023-02-13T03:43:46;94350.59;;;0.32;91.69
3250;BME280;1637;42.020;23.992;2023-02-13T03:46:15;94380.66;;;0.31;92.90
3250;BME280;1637;42.020;23.992;2023-02-13T03:48:44;94390.56;;;0.92;90.12
3250;BME280;1637;42.020;23.992;2023-02-13T03:51:32;94388.28;;;0.55;91.33
3250;BME280;1637;42.020;23.992;2023-02-13T03:54:05;94390.25;;;0.72;91.68
3250;BME280;1637;42.020;23.992;2023-02-13T03:56:39;94389.66;;;0.97;89.87
3250;BME280;1637;42.020;23.992;2023-02-13T03:59:26;94398.84;;;0.77;90.44
3250;BME280;1637;42.020;23.992;2023-02-13T04:01:59;94397.75;;;0.56;91.68
3250;BME280;1637;42.020;23.992;2023-02-13T04:04:36;94362.56;;;0.38;91.53
3250;BME280;1637;42.020;23.992;2023-02-13T04:07:06;94393.50;;;0.91;90.07
3250;BME280;1637;42.020;23.992;2023-02-13T04:09:38;94400.94;;;0.89;88.87
3250;BME280;1637;42.020;23.992;2023-02-13T04:12:11;94401.81;;;0.84;89.23
3250;BME280;1637;42.020;23.992;2023-02-13T04:14:45;94405.53;;;0.83;88.89
3250;BME280;1637;42.020;23.992;2023-02-13T04:17:17;94361.44;;;0.53;89.09
3250;BME280;1637;42.020;23.992;2023-02-13T04:19:45;94408.31;;;0.78;88.42
3250;BME280;1637;42.020;23.992;2023-02-13T04:22:12;94409.06;;;0.56;89.78
3250;BME280;1637;42.020;23.992;2023-02-13T04:24:41;94401.78;;;0.76;88.72
3250;BME280;1637;42.020;23.992;2023-02-13T04:27:10;94410.22;;;0.86;88.46
3250;BME280;1637;42.020;23.992;2023-02-13T04:29:38;94399.25;;;0.93;87.25
3250;BME280;1637;42.020;23.992;2023-02-13T04:32:05;94402.84;;;0.75;88.42
3250;BME280;1637;42.020;23.992;2023-02-13T04:34:32;94405.13;;;0.90;87.59
3250;BME280;1637;42.020;23.992;2023-02-13T04:36:59;94389.31;;;0.67;87.50
3250;BME280;1637;42.020;23.992;2023-02-13T04:39:26;94396.16;;;0.32;88.97
3250;BME280;1637;42.020;23.992;2023-02-13T04:41:54;94401.75;;;0.53;89.09
3250;BME280;1637;42.020;23.992;2023-02-13T04:44:21;94414.69;;;0.41;89.19
3250;BME280;1637;42.020;23.992;2023-02-13T04:46:47;94401.06;;;0.61;87.64
3250;BME280;1637;42.020;23.992;2023-02-13T04:49:14;94399.50;;;0.60;87.33
3250;BME280;1637;42.020;23.992;2023-02-13T04:51:41;94397.72;;;0.33;87.57
3250;BME280;1637;42.020;23.992;2023-02-13T04:54:09;94397.72;;;0.33;88.04
3250;BME280;1637;42.020;23.992;2023-02-13T04:56:36;94403.66;;;0.39;87.77
3250;BME280;1637;42.020;23.992;2023-02-13T04:59:04;94402.22;;;0.33;86.37
3250;BME280;1637;42.020;23.992;2023-02-13T05:01:31;94407.19;;;0.21;87.63
3250;BME280;1637;42.020;23.992;2023-02-13T05:03:58;94405.78;;;0.01;87.96
3250;BME280;1637;42.020;23.992;2023-02-13T05:06:25;94407.81;;;0.04;88.01
3250;BME280;1637;42.020;23.992;2023-02-13T05:08:52;94412.31;;;0.04;84.85
3250;BME280;1637;42.020;23.992;2023-02-13T05:11:18;94443.06;;;-0.06;83.79
3250;BME280;1637;42.020;23.992;2023-02-13T05:13:45;94405.41;;;-0.47;85.65
3250;BME280;1637;42.020;23.992;2023-02-13T05:16:13;94405.00;;;-0.41;85.40
3250;BME280;1637;42.020;23.992;2023-02-13T05:18:40;94400.72;;;-0.37;85.69
3250;BME280;1637;42.020;23.992;2023-02-13T05:21:07;94410.66;;;-0.33;85.83
3250;BME280;1637;42.020;23.992;2023-02-13T05:23:52;94414.38;;;-0.48;87.92
3250;BME280;1637;42.020;23.992;2023-02-13T05:26:18;94381.63;;;-0.56;87.17
3250;BME280;1637;42.020;23.992;2023-02-13T05:28:45;94411.66;;;-0.29;86.02
3250;BME280;1637;42.020;23.992;2023-02-13T05:31:39;94424.66;;;-0.79;85.03
3250;BME280;1637;42.020;23.992;2023-02-13T05:34:09;94421.16;;;-0.75;86.26
3250;BME280;1637;42.020;23.992;2023-02-13T05:36:36;94426.25;;;-0.64;87.68
3250;BME280;1637;42.020;23.992;2023-02-13T05:39:03;94427.41;;;-0.71;86.34
3250;BME280;1637;42.020;23.992;2023-02-13T05:41:30;94430.09;;;-0.43;90.55
3250;BME280;1637;42.020;23.992;2023-02-13T05:43:56;94433.00;;;-0.31;89.81
3250;BME280;1637;42.020;23.992;2023-02-13T05:46:23;94399.53;;;-0.72;88.44
3250;BME280;1637;42.020;23.992;2023-02-13T05:48:51;94421.28;;;-0.52;85.68
3250;BME280;1637;42.020;23.992;2023-02-13T05:51:18;94440.03;;;-0.13;84.17
3250;BME280;1637;42.020;23.992;2023-02-13T05:53:45;94455.44;;;-0.06;82.57
3250;BME280;1637;42.020;23.992;2023-02-13T05:56:12;94443.81;;;-0.32;83.41
3250;BME280;1637;42.020;23.992;2023-02-13T05:58:39;94446.44;;;-0.46;82.35
3250;BME280;1637;42.020;23.992;2023-02-13T06:01:06;94456.19;;;-0.47;82.28
3250;BME280;1637;42.020;23.992;2023-02-13T06:03:33;94451.56;;;-0.68;82.68
3250;BME280;1637;42.020;23.992;2023-02-13T06:06:01;94447.72;;;-0.90;83.51
3250;BME280;1637;42.020;23.992;2023-02-13T06:08:28;94455.63;;;-0.90;84.18
3250;BME280;1637;42.020;23.992;2023-02-13T06:10:54;94451.22;;;-0.48;82.52
3250;BME280;1637;42.020;23.992;2023-02-13T06:13:21;94450.44;;;0.06;79.82
3250;BME280;1637;42.020;23.992;2023-02-13T06:15:48;94454.16;;;0.19;78.54
3250;BME280;1637;42.020;23.992;2023-02-13T06:18:15;94454.34;;;0.09;77.98
3250;BME280;1637;42.020;23.992;2023-02-13T06:20:42;94435.00;;;-0.69;79.91
3250;BME280;1637;42.020;23.992;2023-02-13T06:23:10;94460.75;;;-0.52;81.01
3250;BME280;1637;42.020;23.992;2023-02-13T06:25:37;94457.63;;;-0.68;81.59
3250;BME280;1637;42.020;23.992;2023-02-13T06:28:04;94458.47;;;-0.73;81.15
3250;BME280;1637;42.020;23.992;2023-02-13T06:30:32;94456.44;;;-0.62;81.25
3250;BME280;1637;42.020;23.992;2023-02-13T06:32:59;94460.00;;;-0.39;80.91
3250;BME280;1637;42.020;23.992;2023-02-13T06:35:26;94465.56;;;0.00;80.42
3250;BME280;1637;42.020;23.992;2023-02-13T06:37:53;94465.91;;;0.49;79.00
3250;BME280;1637;42.020;23.992;2023-02-13T06:40:21;94475.03;;;1.77;73.46
3250;BME280;1637;42.020;23.992;2023-02-13T06:42:48;94476.88;;;2.98;67.88
3250;BME280;1637;42.020;23.992;2023-02-13T06:45:15;94477.19;;;2.88;66.10
3250;BME280;1637;42.020;23.992;2023-02-13T06:47:42;94431.75;;;2.69;66.22
3250;BME280;1637;42.020;23.992;2023-02-13T06:50:10;94463.13;;;2.45;67.22
3250;BME280;1637;42.020;23.992;2023-02-13T06:52:37;94469.69;;;2.47;67.58
3250;BME280;1637;42.020;23.992;2023-02-13T06:55:05;94472.66;;;3.40;65.79
3250;BME280;1637;42.020;23.992;2023-02-13T06:57:33;94473.28;;;4.60;62.40
3250;BME280;1637;42.020;23.992;2023-02-13T07:00:00;94465.44;;;4.05;62.45
3250;BME280;1637;42.020;23.992;2023-02-13T07:02:30;94458.66;;;3.31;64.05
3250;BME280;1637;42.020;23.992;2023-02-13T07:04:57;94458.50;;;3.92;63.33
3250;BME280;1637;42.020;23.992;2023-02-13T07:07:24;94463.34;;;3.90;62.62
3250;BME280;1637;42.020;23.992;2023-02-13T07:09:51;94460.72;;;4.19;61.81
3250;BME280;1637;42.020;23.992;2023-02-13T07:12:18;94465.06;;;4.24;61.81
3250;BME280;1637;42.020;23.992;2023-02-13T07:14:46;94444.66;;;4.45;59.50
3250;BME280;1637;42.020;23.992;2023-02-13T07:17:13;94465.03;;;3.94;62.33
3250;BME280;1637;42.020;23.992;2023-02-13T07:19:40;94457.41;;;3.93;62.29
3250;BME280;1637;42.020;23.992;2023-02-13T07:22:06;94459.50;;;4.67;60.41
3250;BME280;1637;42.020;23.992;2023-02-13T07:24:33;94466.13;;;3.93;59.60
3250;BME280;1637;42.020;23.992;2023-02-13T07:27:03;94456.00;;;4.25;58.80
3250;BME280;1637;42.020;23.992;2023-02-13T07:29:30;94482.53;;;5.91;55.08
3250;BME280;1637;42.020;23.992;2023-02-13T07:31:58;94476.50;;;4.74;57.03
3250;BME280;1637;42.020;23.992;2023-02-13T07:34:25;94472.09;;;4.49;61.67
3250;BME280;1637;42.020;23.992;2023-02-13T07:36:51;94471.88;;;4.83;61.82
3250;BME280;1637;42.020;23.992;2023-02-13T07:39:18;94477.78;;;5.10;61.04
3250;BME280;1637;42.020;23.992;2023-02-13T07:41:45;94474.81;;;5.98;64.00
3250;BME280;1637;42.020;23.992;2023-02-13T07:44:12;94484.03;;;8.13;56.46
3250;BME280;1637;42.020;23.992;2023-02-13T07:46:39;94521.38;;;8.41;58.05
3250;BME280;1637;42.020;23.992;2023-02-13T07:49:07;94493.59;;;10.28;49.89
3250;BME280;1637;42.020;23.992;2023-02-13T07:51:34;94511.69;;;10.80;48.71
3250;BME280;1637;42.020;23.992;2023-02-13T07:54:01;94495.78;;;10.45;48.00
3250;BME280;1637;42.020;23.992;2023-02-13T07:56:28;94491.81;;;9.93;49.89
3250;BME280;1637;42.020;23.992;2023-02-13T07:58:55;94494.63;;;9.23;49.91
3250;BME280;1637;42.020;23.992;2023-02-13T08:01:21;94497.50;;;11.66;46.48
3250;BME280;1637;42.020;23.992;2023-02-13T08:03:48;94498.38;;;12.48;43.27
3250;BME280;1637;42.020;23.992;2023-02-13T08:06:18;94495.31;;;12.49;43.03
3250;BME280;1637;42.020;23.992;2023-02-13T08:08:45;94498.69;;;12.83;42.16
3250;BME280;1637;42.020;23.992;2023-02-13T08:11:22;94498.16;;;13.18;40.10
3250;BME280;1637;42.020;23.992;2023-02-13T08:14:07;94496.59;;;13.90;38.15
3250;BME280;1637;42.020;23.992;2023-02-13T08:16:34;94504.69;;;13.93;37.65
3250;BME280;1637;42.020;23.992;2023-02-13T08:19:01;94484.75;;;11.89;41.96
3250;BME280;1637;42.020;23.992;2023-02-13T08:21:29;94491.66;;;13.23;39.13
3250;BME280;1637;42.020;23.992;2023-02-13T08:23:57;94476.75;;;12.33;40.51
3250;BME280;1637;42.020;23.992;2023-02-13T08:26:24;94475.34;;;12.06;41.36
3250;BME280;1637;42.020;23.992;2023-02-13T08:28:51;94471.31;;;11.56;42.41
3250;BME280;1637;42.020;23.992;2023-02-13T08:31:18;94478.41;;;12.49;40.57
3250;BME280;1637;42.020;23.992;2023-02-13T08:33:44;94470.91;;;12.65;39.22
3250;BME280;1637;42.020;23.992;2023-02-13T08:36:11;94479.84;;;13.38;37.39
3250;BME280;1637;42.020;23.992;2023-02-13T08:38:39;94467.66;;;12.45;38.45
3250;BME280;1637;42.020;23.992;2023-02-13T08:41:06;94477.69;;;13.68;37.72
3250;BME280;1637;42.020;23.992;2023-02-13T08:43:34;94465.69;;;12.38;39.47
3250;BME280;1637;42.020;23.992;2023-02-13T08:46:01;94460.97;;;11.88;40.42
3250;BME280;1637;42.020;23.992;2023-02-13T08:48:28;94460.94;;;11.84;41.01
3250;BME280;1637;42.020;23.992;2023-02-13T08:50:55;94461.38;;;11.56;40.59
3250;BME280;1637;42.020;23.992;2023-02-13T08:53:22;94466.81;;;11.63;40.87
3250;BME280;1637;42.020;23.992;2023-02-13T08:55:54;94468.91;;;13.13;38.44
3250;BME280;1637;42.020;23.992;2023-02-13T08:58:21;94471.88;;;13.63;37.01
3250;BME280;1637;42.020;23.992;2023-02-13T09:00:49;94461.97;;;12.54;39.19
3250;BME280;1637;42.020;23.992;2023-02-13T09:03:15;94465.19;;;11.89;40.20
3250;BME280;1637;42.020;23.992;2023-02-13T09:05:42;94452.19;;;9.60;43.32
3250;BME280;1637;42.020;23.992;2023-02-13T09:08:09;94452.69;;;11.07;41.99
3250;BME280;1637;42.020;23.992;2023-02-13T09:10:38;94453.50;;;13.10;38.02
3250;BME280;1637;42.020;23.992;2023-02-13T09:13:07;94451.84;;;12.88;36.84
3250;BME280;1637;42.020;23.992;2023-02-13T09:15:37;94452.06;;;12.68;35.03
3250;BME280;1637;42.020;23.992;2023-02-13T09:18:03;94445.03;;;12.50;35.83
3250;BME280;1637;42.020;23.992;2023-02-13T09:20:30;94433.53;;;8.20;41.53
3250;BME280;1637;42.020;23.992;2023-02-13T09:22:57;94425.53;;;7.45;44.64
3250;BME280;1637;42.020;23.992;2023-02-13T09:25:24;94426.81;;;9.51;41.97
3250;BME280;1637;42.020;23.992;2023-02-13T09:27:51;94425.34;;;11.57;38.23
3250;BME280;1637;42.020;23.992;2023-02-13T09:30:19;94430.25;;;11.85;37.06
3250;BME280;1637;42.020;23.992;2023-02-13T09:32:49;94407.66;;;12.89;35.63
3250;BME280;1637;42.020;23.992;2023-02-13T09:35:16;94426.34;;;13.26;34.79
3250;BME280;1637;42.020;23.992;2023-02-13T09:37:43;94417.84;;;11.74;36.66
3250;BME280;1637;42.020;23.992;2023-02-13T09:40:22;94422.59;;;11.20;37.36
3250;BME280;1637;42.020;23.992;2023-02-13T09:42:51;94412.56;;;12.21;36.44
3250;BME280;1637;42.020;23.992;2023-02-13T09:45:20;94415.84;;;11.67;35.71
3250;BME280;1637;42.020;23.992;2023-02-13T09:47:49;94399.00;;;11.33;36.04
3250;BME280;1637;42.020;23.992;2023-02-13T09:50:18;94382.84;;;11.29;35.63
3250;BME280;1637;42.020;23.992;2023-02-13T09:52:49;94393.25;;;8.95;39.05
3250;BME280;1637;42.020;23.992;2023-02-13T09:55:19;94400.34;;;8.88;40.55
3250;BME280;1637;42.020;23.992;2023-02-13T09:57:54;94388.28;;;11.03;37.31
3250;BME280;1637;42.020;23.992;2023-02-13T10:00:28;94394.44;;;11.37;36.05
3250;BME280;1637;42.020;23.992;2023-02-13T10:03:27;94388.81;;;10.86;38.05
3250;BME280;1637;42.020;23.992;2023-02-13T10:06:05;94381.47;;;10.26;38.42
3250;BME280;1637;42.020;23.992;2023-02-13T10:08:44;94379.47;;;11.02;37.36
3250;BME280;1637;42.020;23.992;2023-02-13T10:11:32;94375.13;;;10.91;36.65
3250;BME280;1637;42.020;23.992;2023-02-13T10:14:10;94362.63;;;9.51;39.19
3250;BME280;1637;42.020;23.992;2023-02-13T10:16:42;94362.97;;;10.18;37.83
3250;BME280;1637;42.020;23.992;2023-02-13T10:19:17;94351.59;;;10.24;37.04
3250;BME280;1637;42.020;23.992;2023-02-13T10:21:51;94368.59;;;10.62;39.19
3250;BME280;1637;42.020;23.992;2023-02-13T10:24:29;94356.03;;;11.66;39.24
3250;BME280;1637;42.020;23.992;2023-02-13T10:26:58;94353.75;;;11.68;41.29
3250;BME280;1637;42.020;23.992;2023-02-13T10:29:36;94315.88;;;10.99;44.81
3250;BME280;1637;42.020;23.992;2023-02-13T10:32:27;94331.44;;;11.20;36.45
3250;BME280;1637;42.020;23.992;2023-02-13T10:34:58;94347.63;;;10.97;36.67
3250;BME280;1637;42.020;23.992;2023-02-13T10:37:27;94340.91;;;11.48;34.88
3250;BME280;1637;42.020;23.992;2023-02-13T10:39:57;94334.88;;;11.21;41.02
3250;BME280;1637;42.020;23.992;2023-02-13T10:42:33;94324.13;;;9.36;38.85
3250;BME280;1637;42.020;23.992;2023-02-13T10:45:17;94267.94;;;9.55;38.09
3250;BME280;1637;42.020;23.992;2023-02-13T10:48:01;94308.03;;;9.33;38.78
3250;BME280;1637;42.020;23.992;2023-02-13T10:50:36;94304.97;;;9.76;37.93
3250;BME280;1637;42.020;23.992;2023-02-13T10:53:13;94292.50;;;8.22;39.40
3250;BME280;1637;42.020;23.992;2023-02-13T10:56:01;94307.53;;;8.85;37.39
3250;BME280;1637;42.020;23.992;2023-02-13T10:58:39;94299.78;;;9.64;36.78
3250;BME280;1637;42.020;23.992;2023-02-13T11:01:13;94287.78;;;8.70;37.04
3250;BME280;1637;42.020;23.992;2023-02-13T11:03:44;94299.69;;;9.34;36.51
3250;BME280;1637;42.020;23.992;2023-02-13T11:06:15;94288.31;;;8.06;38.30
3250;BME280;1637;42.020;23.992;2023-02-13T11:08:44;94281.00;;;8.03;38.81
3250;BME280;1637;42.020;23.992;2023-02-13T11:11:29;94283.16;;;8.67;37.53
3250;BME280;1637;42.020;23.992;2023-02-13T11:14:12;94271.53;;;8.79;37.30
3250;BME280;1637;42.020;23.992;2023-02-13T11:16:54;94277.53;;;8.91;36.42
3250;BME280;1637;42.020;23.992;2023-02-13T11:19:25;94272.09;;;9.76;36.53
3250;BME280;1637;42.020;23.992;2023-02-13T11:21:57;94272.28;;;9.90;35.43
3250;BME280;1637;42.020;23.992;2023-02-13T11:24:26;94231.47;;;8.59;36.41
3250;BME280;1637;42.020;23.992;2023-02-13T11:26:58;94267.09;;;8.86;36.46
3250;BME280;1637;42.020;23.992;2023-02-13T11:29:28;94249.50;;;9.05;36.83
3250;BME280;1637;42.020;23.992;2023-02-13T11:32:05;94251.38;;;8.62;36.84
3250;BME280;1637;42.020;23.992;2023-02-13T11:34:38;94253.28;;;9.04;36.80
3250;BME280;1637;42.020;23.992;2023-02-13T11:37:23;94243.03;;;8.09;37.38
3250;BME280;1637;42.020;23.992;2023-02-13T11:39:52;94258.41;;;8.89;37.44
3250;BME280;1637;42.020;23.992;2023-02-13T11:42:24;94238.88;;;9.54;35.99
3250;BME280;1637;42.020;23.992;2023-02-13T11:44:54;94232.91;;;8.95;35.12
3250;BME280;1637;42.020;23.992;2023-02-13T11:47:33;94236.59;;;7.94;36.12
3250;BME280;1637;42.020;23.992;2023-02-13T11:50:03;94222.47;;;8.29;36.38
3250;BME280;1637;42.020;23.992;2023-02-13T11:52:32;94223.13;;;8.61;36.18
3250;BME280;1637;42.020;23.992;2023-02-13T11:55:01;94227.06;;;8.48;36.66
3250;BME280;1637;42.020;23.992;2023-02-13T11:57:31;94213.84;;;8.55;35.81
3250;BME280;1637;42.020;23.992;2023-02-13T12:00:00;94210.25;;;8.67;35.55
3250;BME280;1637;42.020;23.992;2023-02-13T12:02:29;94203.03;;;8.48;35.02
3250;BME280;1637;42.020;23.992;2023-02-13T12:05:16;94209.97;;;9.14;34.61
3250;BME280;1637;42.020;23.992;2023-02-13T12:07:44;94166.53;;;8.98;34.15
3250;BME280;1637;42.020;23.992;2023-02-13T12:10:18;94197.34;;;8.91;34.79
3250;BME280;1637;42.020;23.992;2023-02-13T12:12:52;94193.59;;;9.42;33.60
3250;BME280;1637;42.020;23.992;2023-02-13T12:15:22;94190.88;;;9.15;33.72
3250;BME280;1637;42.020;23.992;2023-02-13T12:17:56;94184.75;;;9.15;33.90
3250;BME280;1637;42.020;23.992;2023-02-13T12:20:36;94170.94;;;9.09;34.24
3250;BME280;1637;42.020;23.992;2023-02-13T12:23:15;94180.56;;;9.14;34.19
3250;BME280;1637;42.020;23.992;2023-02-13T12:25:51;94193.09;;;9.10;33.02
3250;BME280;1637;42.020;23.992;2023-02-13T12:28:25;94175.22;;;9.14;32.51
3250;BME280;1637;42.020;23.992;2023-02-13T12:31:18;94160.78;;;8.73;32.77
3250;BME280;1637;42.020;23.992;2023-02-13T12:34:21;94171.00;;;9.13;32.90
3250;BME280;1637;42.020;23.992;2023-02-13T12:37:01;94071.00;;;9.17;32.87
3250;BME280;1637;42.020;23.992;2023-02-13T12:39:33;94160.84;;;9.48;32.46
3250;BME280;1637;42.020;23.992;2023-02-13T12:42:15;94159.50;;;9.35;33.13
3250;BME280;1637;42.020;23.992;2023-02-13T12:44:53;94155.50;;;9.48;32.91
3250;BME280;1637;42.020;23.992;2023-02-13T12:47:27;94154.75;;;9.78;32.44
3250;BME280;1637;42.020;23.992;2023-02-13T12:50:10;94151.63;;;9.46;33.40
3250;BME280;1637;42.020;23.992;2023-02-13T12:52:51;94145.63;;;9.52;34.36
3250;BME280;1637;42.020;23.992;2023-02-13T12:55:34;94146.59;;;8.69;34.63
3250;BME280;1637;42.020;23.992;2023-02-13T13:01:05;94140.91;;;8.93;34.43
3250;BME280;1637;42.020;23.992;2023-02-13T13:03:45;94133.06;;;9.30;34.38
3250;BME280;1637;42.020;23.992;2023-02-13T13:06:25;94136.28;;;9.16;34.15
3250;BME280;1637;42.020;23.992;2023-02-13T13:09:19;94139.31;;;9.15;34.24
3250;BME280;1637;42.020;23.992;2023-02-13T13:12:07;94131.25;;;9.11;33.44
3250;BME280;1637;42.020;23.992;2023-02-13T13:14:42;94133.47;;;9.06;33.93
3250;BME280;1637;42.020;23.992;2023-02-13T13:17:22;94130.56;;;9.18;34.40
3250;BME280;1637;42.020;23.992;2023-02-13T13:19:59;94130.50;;;9.11;33.19
3250;BME280;1637;42.020;23.992;2023-02-13T13:22:33;94130.63;;;9.21;35.27
3250;BME280;1637;42.020;23.992;2023-02-13T13:25:10;94128.13;;;9.32;34.60
3250;BME280;1637;42.020;23.992;2023-02-13T13:27:43;94124.72;;;9.09;34.65
3250;BME280;1637;42.020;23.992;2023-02-13T13:30:16;94117.63;;;8.93;35.45
3250;BME280;1637;42.020;23.992;2023-02-13T13:32:44;94113.50;;;9.00;36.44
3250;BME280;1637;42.020;23.992;2023-02-13T13:35:14;94105.19;;;8.82;36.91
3250;BME280;1637;42.020;23.992;2023-02-13T13:37:47;94112.63;;;8.92;36.94
3250;BME280;1637;42.020;23.992;2023-02-13T13:40:35;94102.94;;;8.61;37.81
3250;BME280;1637;42.020;23.992;2023-02-13T13:43:13;94111.31;;;8.82;38.01
3250;BME280;1637;42.020;23.992;2023-02-13T13:45:47;94114.47;;;8.65;37.58
3250;BME280;1637;42.020;23.992;2023-02-13T13:48:39;94114.63;;;8.53;38.04
3250;BME280;1637;42.020;23.992;2023-02-13T13:51:14;94116.50;;;8.72;38.35